createdAt,value
2023-01-22T00:00:08.719Z,11.27
2023-01-22T00:02:36.592Z,9.32
2023-01-22T00:05:04.627Z,9.70
2023-01-22T00:07:31.366Z,11.13
2023-01-22T00:09:59.935Z,10.75
2023-01-22T00:12:27.527Z,9.27
2023-01-22T00:14:54.428Z,9.35
2023-01-22T00:17:21.271Z,11.98
2023-01-22T00:19:47.986Z,12.52
2023-01-22T00:22:14.955Z,9.82
2023-01-22T00:24:41.701Z,11.57
2023-01-22T00:27:08.626Z,9.23
2023-01-22T00:29:35.534Z,9.98
2023-01-22T00:32:02.868Z,13.43
2023-01-22T00:34:29.694Z,10.50
2023-01-22T00:36:56.463Z,11.10
2023-01-22T00:39:23.206Z,11.75
2023-01-22T00:41:50.107Z,13.05
2023-01-22T00:44:16.968Z,9.57
2023-01-22T00:46:43.697Z,11.70
2023-01-22T00:49:11.329Z,10.13
2023-01-22T00:51:39.410Z,7.78
2023-01-22T00:54:06.746Z,8.50
2023-01-22T00:56:33.600Z,6.38
2023-01-22T00:59:00.315Z,8.40
2023-01-22T01:01:27.040Z,5.53
2023-01-22T01:03:53.801Z,8.15
2023-01-22T01:06:22.260Z,7.68
2023-01-22T01:08:50.075Z,7.35
2023-01-22T01:11:21.831Z,8.27
2023-01-22T01:13:49.925Z,8.20
2023-01-22T01:16:17.859Z,6.82
2023-01-22T01:18:44.802Z,6.40
2023-01-22T01:21:12.278Z,6.70
2023-01-22T01:23:39.709Z,5.47
2023-01-22T01:26:08.539Z,5.95
2023-01-22T01:28:36.617Z,6.32
2023-01-22T01:31:09.425Z,7.88
2023-01-22T01:33:36.429Z,5.95
2023-01-22T01:36:09.980Z,6.95
2023-01-22T01:38:37.028Z,5.45
2023-01-22T01:41:04.225Z,4.78
2023-01-22T01:43:31.394Z,5.95
2023-01-22T01:45:59.948Z,5.88
2023-01-22T01:48:53.306Z,6.20
2023-01-22T01:51:32.280Z,4.97
2023-01-22T01:54:00.825Z,5.05
2023-01-22T01:56:37.578Z,5.18
2023-01-22T01:59:08.790Z,4.68
2023-01-22T02:01:36.539Z,6.03
2023-01-22T02:04:03.473Z,5.20
2023-01-22T02:06:30.188Z,8.65
2023-01-22T02:08:57.730Z,5.00
2023-01-22T02:11:25.296Z,6.70
2023-01-22T02:14:03.587Z,4.63
2023-01-22T02:16:30.965Z,4.90
2023-01-22T02:18:57.779Z,5.57
2023-01-22T02:21:37.842Z,5.47
2023-01-22T02:24:08.089Z,3.15
2023-01-22T02:26:35.337Z,3.60
2023-01-22T02:29:02.265Z,4.18
2023-01-22T02:31:29.310Z,5.07
2023-01-22T02:33:56.109Z,4.15
2023-01-22T02:36:23.022Z,3.97
2023-01-22T02:38:49.764Z,3.92
2023-01-22T02:41:16.742Z,5.35
2023-01-22T02:43:43.569Z,5.03
2023-01-22T02:46:10.526Z,4.75
2023-01-22T02:48:37.329Z,3.55
2023-01-22T02:51:04.850Z,4.20
2023-01-22T02:53:31.700Z,3.63
2023-01-22T02:55:58.374Z,5.22
2023-01-22T02:58:25.259Z,4.38
2023-01-22T03:00:52.328Z,4.15
2023-01-22T03:03:19.319Z,4.45
2023-01-22T03:05:51.255Z,6.40
2023-01-22T03:08:19.706Z,6.95
2023-01-22T03:10:46.928Z,8.07
2023-01-22T03:13:32.370Z,5.85
2023-01-22T03:16:18.113Z,5.88
2023-01-22T03:19:03.331Z,4.07
2023-01-22T03:21:30.444Z,4.30
2023-01-22T03:23:57.141Z,4.03
2023-01-22T03:26:24.291Z,4.13
2023-01-22T03:28:51.651Z,4.45
2023-01-22T03:31:18.933Z,4.72
2023-01-22T03:33:46.535Z,3.50
2023-01-22T03:36:14.865Z,2.97
2023-01-22T03:38:42.476Z,2.50
2023-01-22T03:41:13.217Z,3.15
2023-01-22T03:43:39.953Z,4.65
2023-01-22T03:46:14.269Z,3.33
2023-01-22T03:48:41.627Z,2.67
2023-01-22T03:51:13.533Z,3.28
2023-01-22T03:53:43.998Z,3.17
2023-01-22T03:56:13.196Z,3.00
2023-01-22T03:58:40.284Z,4.07
2023-01-22T04:01:13.390Z,3.10
2023-01-22T04:03:41.143Z,3.03
2023-01-22T04:06:09.454Z,3.47
2023-01-22T04:08:42.118Z,3.88
2023-01-22T04:11:09.867Z,5.28
2023-01-22T04:13:38.561Z,3.25
2023-01-22T04:16:05.682Z,3.85
2023-01-22T04:18:32.367Z,4.00
2023-01-22T04:20:59.542Z,2.70
2023-01-22T04:23:26.600Z,4.03
2023-01-22T04:25:53.854Z,2.03
2023-01-22T04:28:20.639Z,3.35
2023-01-22T04:30:49.609Z,4.22
2023-01-22T04:33:16.582Z,3.50
2023-01-22T04:35:43.419Z,4.43
2023-01-22T04:38:13.259Z,2.78
2023-01-22T04:40:40.120Z,3.13
2023-01-22T04:43:08.233Z,2.53
2023-01-22T04:45:35.660Z,3.25
2023-01-22T04:48:02.883Z,4.90
2023-01-22T04:50:33.175Z,2.45
2023-01-22T04:53:01.116Z,3.28
2023-01-22T04:55:28.481Z,3.83
2023-01-22T04:57:56.897Z,3.65
2023-01-22T05:00:25.376Z,3.67
2023-01-22T05:02:56.959Z,2.83
2023-01-22T05:05:23.991Z,3.67
2023-01-22T05:07:50.696Z,9.20
2023-01-22T05:10:17.750Z,2.33
2023-01-22T05:12:44.753Z,4.10
2023-01-22T05:15:23.011Z,4.15
2023-01-22T05:17:53.432Z,2.70
2023-01-22T05:20:21.361Z,4.22
2023-01-22T05:22:51.670Z,4.97
2023-01-22T05:25:18.885Z,3.92
2023-01-22T05:27:45.953Z,3.60
2023-01-22T05:30:13.527Z,3.97
2023-01-22T05:32:40.576Z,4.28
2023-01-22T05:35:07.503Z,3.88
2023-01-22T05:37:34.194Z,4.00
2023-01-22T05:40:01.008Z,4.38
2023-01-22T05:42:27.683Z,4.97
2023-01-22T05:44:54.445Z,4.60
2023-01-22T05:47:21.188Z,4.28
2023-01-22T05:49:47.874Z,3.70
2023-01-22T05:52:14.647Z,3.90
2023-01-22T05:54:41.505Z,3.78
2023-01-22T05:57:08.533Z,4.22
2023-01-22T05:59:35.631Z,3.40
2023-01-22T06:02:02.521Z,5.25
2023-01-22T06:04:29.569Z,7.43
2023-01-22T06:06:56.385Z,10.18
2023-01-22T06:09:23.397Z,12.48
2023-01-22T06:11:50.211Z,14.73
2023-01-22T06:14:17.021Z,10.88
2023-01-22T06:16:43.763Z,8.40
2023-01-22T06:19:10.647Z,9.50
2023-01-22T06:21:37.454Z,11.13
2023-01-22T06:24:04.421Z,18.52
2023-01-22T06:26:31.141Z,15.77
2023-01-22T06:28:57.779Z,10.30
2023-01-22T06:31:24.627Z,15.90
2023-01-22T06:33:53.102Z,13.60
2023-01-22T06:36:19.799Z,8.02
2023-01-22T06:38:46.488Z,7.70
2023-01-22T06:41:13.197Z,9.85
2023-01-22T06:43:39.943Z,12.00
2023-01-22T06:46:06.737Z,9.25
2023-01-22T06:48:33.485Z,10.50
2023-01-22T06:51:00.817Z,7.40
2023-01-22T06:53:28.049Z,9.07
2023-01-22T06:55:55.194Z,7.38
2023-01-22T06:58:22.334Z,8.52
2023-01-22T07:00:49.049Z,9.20
2023-01-22T07:03:16.306Z,9.45
2023-01-22T07:05:43.049Z,8.75
2023-01-22T07:08:14.746Z,8.32
2023-01-22T07:10:41.982Z,10.13
2023-01-22T07:13:10.183Z,13.48
2023-01-22T07:15:36.845Z,8.82
2023-01-22T07:18:03.617Z,10.80
2023-01-22T07:20:30.326Z,8.60
2023-01-22T07:23:00.179Z,9.70
2023-01-22T07:25:27.884Z,11.40
2023-01-22T07:28:06.133Z,6.07
2023-01-22T07:30:33.341Z,7.93
2023-01-22T07:33:01.542Z,7.47
2023-01-22T07:35:29.017Z,8.70
2023-01-22T07:37:57.688Z,7.72
2023-01-22T07:40:25.091Z,7.68
2023-01-22T07:42:52.650Z,7.03
2023-01-22T07:45:19.853Z,8.05
2023-01-22T07:47:57.938Z,13.70
2023-01-22T07:50:29.893Z,14.50
2023-01-22T07:52:56.715Z,14.23
2023-01-22T07:55:23.666Z,19.65
2023-01-22T07:58:01.554Z,15.25
2023-01-22T08:00:28.341Z,8.10
2023-01-22T08:02:55.317Z,8.48
2023-01-22T08:05:22.123Z,9.27
2023-01-22T08:07:48.958Z,13.35
2023-01-22T08:10:17.196Z,15.15
2023-01-22T08:12:46.376Z,14.90
2023-01-22T08:15:13.916Z,8.55
2023-01-22T08:17:40.962Z,9.43
2023-01-22T08:20:08.997Z,21.17
2023-01-22T08:22:35.752Z,11.95
2023-01-22T08:25:02.508Z,12.70
2023-01-22T08:27:29.224Z,11.85
2023-01-22T08:29:55.965Z,25.63
2023-01-22T08:32:22.848Z,12.27
2023-01-22T08:34:50.736Z,15.23
2023-01-22T08:37:17.478Z,8.25
2023-01-22T08:39:44.190Z,10.02
2023-01-22T08:42:10.918Z,8.90
2023-01-22T08:44:37.636Z,10.52
2023-01-22T08:47:04.587Z,17.02
2023-01-22T08:49:31.465Z,12.68
2023-01-22T08:51:58.229Z,8.63
2023-01-22T08:54:26.226Z,11.05
2023-01-22T08:56:53.008Z,10.80
2023-01-22T08:59:20.029Z,11.20
2023-01-22T09:01:46.726Z,11.75
2023-01-22T09:04:13.516Z,16.27
2023-01-22T09:06:40.276Z,13.90
2023-01-22T09:09:07.406Z,7.60
2023-01-22T09:11:34.692Z,11.40
2023-01-22T09:14:01.448Z,10.02
2023-01-22T09:16:28.619Z,11.23
2023-01-22T09:18:55.349Z,9.05
2023-01-22T09:21:22.089Z,10.15
2023-01-22T09:23:48.814Z,8.73
2023-01-22T09:26:15.515Z,9.20
2023-01-22T09:28:42.231Z,10.95
2023-01-22T09:31:12.044Z,8.65
2023-01-22T09:33:39.327Z,10.23
2023-01-22T09:36:16.366Z,9.10
2023-01-22T09:38:43.489Z,12.38
2023-01-22T09:41:28.756Z,10.57
2023-01-22T09:44:24.452Z,14.85
2023-01-22T09:47:22.965Z,25.05
2023-01-22T09:50:02.601Z,29.63
2023-01-22T09:52:32.314Z,13.15
2023-01-22T09:54:59.698Z,13.60
2023-01-22T09:57:31.759Z,13.25
2023-01-22T09:59:59.036Z,12.25
2023-01-22T10:02:28.537Z,12.63
2023-01-22T10:05:05.108Z,12.63
2023-01-22T10:07:41.793Z,17.17
2023-01-22T10:10:26.477Z,9.10
2023-01-22T10:13:41.413Z,9.35
2023-01-22T10:16:09.979Z,9.45
2023-01-22T10:19:01.096Z,11.32
2023-01-22T10:21:52.472Z,7.28
2023-01-22T10:24:19.159Z,9.80
2023-01-22T10:26:54.670Z,7.82
2023-01-22T10:29:31.145Z,10.25
2023-01-22T10:32:22.937Z,8.85
2023-01-22T10:35:06.204Z,8.63
2023-01-22T10:37:55.093Z,11.60
2023-01-22T10:40:30.947Z,11.65
2023-01-22T10:43:01.944Z,19.90
2023-01-22T10:45:28.959Z,11.90
2023-01-22T10:48:13.213Z,13.15
2023-01-22T10:50:41.332Z,9.73
2023-01-22T10:53:18.599Z,10.93
2023-01-22T10:55:55.600Z,14.82
2023-01-22T10:58:24.610Z,11.60
2023-01-22T11:01:06.807Z,10.57
2023-01-22T11:03:39.117Z,12.45
2023-01-22T11:06:21.949Z,10.35
2023-01-22T11:08:54.154Z,12.07
2023-01-22T11:11:30.291Z,15.05
2023-01-22T11:16:34.710Z,10.85
2023-01-22T11:19:04.859Z,18.73
2023-01-22T11:21:57.689Z,10.68
2023-01-22T11:24:47.159Z,8.88
2023-01-22T11:27:26.941Z,10.27
2023-01-22T11:30:25.163Z,8.63
2023-01-22T11:33:17.026Z,7.28
2023-01-22T11:36:12.544Z,9.23
2023-01-22T11:38:57.318Z,5.93
2023-01-22T11:41:50.205Z,7.18
2023-01-22T11:44:32.120Z,9.50
2023-01-22T11:47:17.427Z,8.30
2023-01-22T11:50:06.289Z,6.45
2023-01-22T11:52:51.001Z,5.70
2023-01-22T11:55:55.374Z,7.38
2023-01-22T11:58:54.083Z,14.88
2023-01-22T12:01:32.029Z,10.15
2023-01-22T12:04:10.598Z,11.98
2023-01-22T12:06:40.166Z,9.65
2023-01-22T12:09:24.057Z,10.13
2023-01-22T12:11:58.812Z,8.07
2023-01-22T12:14:34.746Z,16.65
2023-01-22T12:17:13.532Z,58.90
2023-01-22T12:20:07.328Z,19.67
2023-01-22T12:22:48.413Z,10.73
2023-01-22T12:25:33.146Z,10.43
2023-01-22T12:28:08.872Z,9.02
2023-01-22T12:31:00.257Z,10.15
2023-01-22T12:33:31.199Z,9.43
2023-01-22T12:36:02.233Z,8.90
2023-01-22T12:38:32.210Z,8.57
2023-01-22T12:41:14.639Z,9.15
2023-01-22T12:43:57.364Z,11.27
2023-01-22T12:46:39.395Z,11.95
2023-01-22T12:49:11.710Z,11.25
2023-01-22T12:51:42.137Z,10.68
2023-01-22T12:54:22.171Z,12.10
2023-01-22T12:56:50.754Z,10.48
2023-01-22T12:59:33.768Z,11.02
2023-01-22T13:02:03.375Z,38.90
2023-01-22T13:04:32.920Z,15.30
2023-01-22T13:07:22.384Z,8.32
2023-01-22T13:10:01.289Z,10.52
2023-01-22T13:12:43.685Z,9.57
2023-01-22T13:15:44.960Z,10.68
2023-01-22T13:18:25.974Z,10.57
2023-01-22T13:21:05.787Z,11.13
2023-01-22T13:23:41.218Z,11.73
2023-01-22T13:26:15.397Z,9.27
2023-01-22T13:28:52.412Z,9.15
2023-01-22T13:31:19.363Z,9.77
2023-01-22T13:33:54.420Z,10.90
2023-01-22T13:36:21.867Z,10.48
2023-01-22T13:38:57.594Z,9.38
2023-01-22T13:41:38.743Z,7.20
2023-01-22T13:44:07.605Z,9.63
2023-01-22T13:46:38.141Z,24.15
2023-01-22T13:49:12.474Z,18.70
2023-01-22T13:51:40.696Z,12.15
2023-01-22T13:54:08.367Z,14.23
2023-01-22T13:56:35.594Z,10.48
2023-01-22T13:59:20.966Z,10.05
2023-01-22T14:01:48.424Z,11.32
2023-01-22T14:04:48.477Z,11.27
2023-01-22T14:07:26.288Z,12.07
2023-01-22T14:09:54.349Z,12.18
2023-01-22T14:12:24.315Z,16.02
2023-01-22T14:14:51.689Z,23.70
2023-01-22T14:17:36.504Z,19.83
2023-01-22T14:20:04.443Z,20.70
2023-01-22T14:22:31.145Z,17.40
2023-01-22T14:24:57.864Z,18.50
2023-01-22T14:27:47.058Z,12.43
2023-01-22T14:30:17.552Z,13.88
2023-01-22T14:32:45.588Z,8.48
2023-01-22T14:35:17.861Z,11.20
2023-01-22T14:37:44.885Z,14.57
2023-01-22T14:40:14.083Z,13.07
2023-01-22T14:42:40.968Z,11.70
2023-01-22T14:45:08.727Z,9.88
2023-01-22T14:47:35.467Z,11.25
2023-01-22T14:50:03.736Z,10.82
2023-01-22T14:52:30.442Z,12.43
2023-01-22T14:54:57.334Z,12.88
2023-01-22T14:57:25.022Z,10.38
2023-01-22T14:59:51.758Z,11.20
2023-01-22T15:02:18.988Z,13.10
2023-01-22T15:04:45.975Z,16.58
2023-01-22T15:07:12.945Z,26.75
2023-01-22T15:09:40.170Z,22.25
2023-01-22T15:12:07.340Z,15.63
2023-01-22T15:14:34.190Z,20.42
2023-01-22T15:17:01.026Z,39.15
2023-01-22T15:19:29.435Z,24.58
2023-01-22T15:21:57.531Z,83.03
2023-01-22T15:24:26.534Z,79.40
2023-01-22T15:26:53.494Z,41.00
2023-01-22T15:29:20.269Z,62.28
2023-01-22T15:31:47.286Z,122.75
2023-01-22T15:34:14.059Z,70.68
2023-01-22T15:36:40.940Z,53.55
2023-01-22T15:39:08.043Z,21.33
2023-01-22T15:41:36.709Z,120.13
2023-01-22T15:44:05.556Z,32.38
2023-01-22T15:46:34.807Z,22.45
2023-01-22T15:49:02.264Z,19.48
2023-01-22T15:51:30.146Z,18.35
2023-01-22T15:54:02.487Z,25.40
2023-01-22T15:56:31.877Z,19.13
2023-01-22T15:58:59.728Z,47.80
2023-01-22T16:01:27.707Z,24.48
2023-01-22T16:03:55.420Z,18.98
2023-01-22T16:06:26.827Z,22.55
2023-01-22T16:08:57.639Z,24.98
2023-01-22T16:11:26.172Z,25.00
2023-01-22T16:13:52.963Z,33.88
2023-01-22T16:16:19.707Z,29.55
2023-01-22T16:18:47.774Z,27.58
2023-01-22T16:21:15.641Z,42.33
2023-01-22T16:23:43.367Z,45.72
2023-01-22T16:26:13.929Z,21.42
2023-01-22T16:28:42.029Z,13.25
2023-01-22T16:31:16.176Z,31.90
2023-01-22T16:33:45.509Z,18.05
2023-01-22T16:36:15.590Z,12.32
2023-01-22T16:38:43.397Z,11.52
2023-01-22T16:41:26.280Z,12.15
2023-01-22T16:44:20.940Z,17.17
2023-01-22T16:46:49.776Z,12.50
2023-01-22T16:49:25.606Z,21.02
2023-01-22T16:51:57.851Z,43.90
2023-01-22T16:54:30.301Z,20.83
2023-01-22T16:57:03.052Z,24.05
2023-01-22T16:59:31.127Z,25.48
2023-01-22T17:01:59.413Z,17.58
2023-01-22T17:04:26.948Z,16.27
2023-01-22T17:06:56.214Z,18.73
2023-01-22T17:09:28.982Z,17.40
2023-01-22T17:12:01.125Z,19.48
2023-01-22T17:14:29.857Z,21.90
2023-01-22T17:16:57.939Z,16.90
2023-01-22T17:19:24.750Z,16.55
2023-01-22T17:21:55.102Z,22.30
2023-01-22T17:24:22.370Z,17.10
2023-01-22T17:26:50.321Z,19.05
2023-01-22T17:29:17.308Z,18.27
2023-01-22T17:31:44.407Z,30.88
2023-01-22T17:34:11.729Z,29.98
2023-01-22T17:36:40.060Z,21.15
2023-01-22T17:39:08.083Z,24.92
2023-01-22T17:41:34.725Z,16.48
2023-01-22T17:44:01.470Z,17.77
2023-01-22T17:46:31.882Z,24.45
2023-01-22T17:49:01.646Z,100.03
2023-01-22T17:51:29.347Z,44.63
2023-01-22T17:53:59.129Z,51.88
2023-01-22T17:56:30.341Z,44.63
2023-01-22T17:58:59.681Z,31.23
2023-01-22T18:01:30.295Z,19.55
2023-01-22T18:04:03.059Z,24.95
2023-01-22T18:06:30.205Z,32.08
2023-01-22T18:08:57.800Z,21.58
2023-01-22T18:11:29.917Z,18.58
2023-01-22T18:14:23.855Z,24.75
2023-01-22T18:16:51.189Z,22.20
2023-01-22T18:19:18.717Z,34.95
2023-01-22T18:21:45.524Z,18.60
2023-01-22T18:24:12.826Z,28.05
2023-01-22T18:26:39.626Z,20.85
2023-01-22T18:29:06.691Z,21.52
2023-01-22T18:31:34.124Z,21.08
2023-01-22T18:34:04.511Z,24.15
2023-01-22T18:36:34.442Z,17.67
2023-01-22T18:39:03.745Z,16.55
2023-01-22T18:41:32.040Z,18.13
2023-01-22T18:44:00.816Z,17.67
2023-01-22T18:46:30.842Z,18.05
2023-01-22T18:49:00.692Z,18.88
2023-01-22T18:51:28.360Z,18.67
2023-01-22T18:53:56.470Z,17.10
2023-01-22T18:56:25.709Z,20.52
2023-01-22T18:58:57.061Z,18.35
2023-01-22T19:01:33.266Z,20.60
2023-01-22T19:04:03.392Z,21.80
2023-01-22T19:06:34.191Z,15.90
2023-01-22T19:09:09.415Z,19.98
2023-01-22T19:11:38.787Z,18.77
2023-01-22T19:14:07.193Z,20.73
2023-01-22T19:16:34.667Z,17.83
2023-01-22T19:19:04.069Z,15.93
2023-01-22T19:21:31.687Z,18.00
2023-01-22T19:24:00.895Z,24.85
2023-01-22T19:26:36.750Z,22.73
2023-01-22T19:29:10.930Z,19.70
2023-01-22T19:31:41.310Z,15.73
2023-01-22T19:34:09.559Z,17.88
2023-01-22T19:36:38.643Z,16.52
2023-01-22T19:39:09.664Z,15.15
2023-01-22T19:41:37.622Z,15.48
2023-01-22T19:44:04.792Z,17.45
2023-01-22T19:46:31.715Z,18.63
2023-01-22T19:48:58.976Z,16.17
2023-01-22T19:51:27.250Z,18.30
2023-01-22T19:53:54.830Z,20.15
2023-01-22T19:56:29.993Z,18.33
2023-01-22T19:59:11.892Z,19.40
2023-01-22T20:01:39.215Z,19.40
2023-01-22T20:04:11.924Z,21.45
2023-01-22T20:06:39.834Z,18.40
2023-01-22T20:09:06.624Z,17.75
2023-01-22T20:11:33.378Z,16.92
2023-01-22T20:14:00.202Z,18.90
2023-01-22T20:16:29.712Z,20.90
2023-01-22T20:18:57.733Z,16.95
2023-01-22T20:21:26.865Z,18.92
2023-01-22T20:23:53.781Z,21.15
2023-01-22T20:26:21.351Z,17.67
2023-01-22T20:28:49.015Z,18.50
2023-01-22T20:31:19.882Z,19.67
2023-01-22T20:33:46.851Z,16.60
2023-01-22T20:36:17.472Z,17.73
2023-01-22T20:38:45.753Z,18.35
2023-01-22T20:41:13.778Z,19.17
2023-01-22T20:43:42.851Z,20.85
2023-01-22T20:46:16.289Z,19.02
2023-01-22T20:48:43.372Z,17.88
2023-01-22T20:51:16.236Z,18.13
2023-01-22T20:53:43.825Z,20.85
2023-01-22T20:56:14.599Z,17.92
2023-01-22T20:58:42.793Z,19.70
2023-01-22T21:01:14.504Z,21.75
2023-01-22T21:03:42.479Z,19.92
2023-01-22T21:06:13.582Z,19.00
2023-01-22T21:08:41.502Z,18.83
2023-01-22T21:11:11.572Z,19.08
2023-01-22T21:13:39.143Z,18.90
2023-01-22T21:16:17.779Z,21.48
2023-01-22T21:18:46.215Z,20.67
2023-01-22T21:21:17.871Z,27.83
2023-01-22T21:23:46.460Z,16.83
2023-01-22T21:26:16.195Z,19.67
2023-01-22T21:28:42.885Z,19.67
2023-01-22T21:31:11.720Z,21.00
2023-01-22T21:33:38.723Z,20.73
2023-01-22T21:36:10.087Z,20.17
2023-01-22T21:38:38.135Z,18.92
2023-01-22T21:41:12.281Z,20.25
2023-01-22T21:44:00.272Z,16.80
2023-01-22T21:46:29.338Z,19.13
2023-01-22T21:48:59.640Z,18.02
2023-01-22T21:51:28.407Z,16.45
2023-01-22T21:53:57.293Z,15.75
2023-01-22T21:56:24.777Z,19.65
2023-01-22T21:58:51.479Z,18.50
2023-01-22T22:01:22.328Z,20.75
2023-01-22T22:03:49.244Z,18.58
2023-01-22T22:06:16.144Z,22.40
2023-01-22T22:08:44.356Z,19.13
2023-01-22T22:11:13.305Z,17.98
2023-01-22T22:13:40.425Z,22.08
2023-01-22T22:16:08.817Z,17.08
2023-01-22T22:18:35.906Z,22.75
2023-01-22T22:21:06.218Z,20.48
2023-01-22T22:23:34.106Z,22.48
2023-01-22T22:26:01.156Z,20.20
2023-01-22T22:28:29.125Z,18.45
2023-01-22T22:31:11.715Z,18.83
2023-01-22T22:33:39.811Z,19.17
2023-01-22T22:36:07.121Z,20.63
2023-01-22T22:38:34.419Z,16.55
2023-01-22T22:41:06.061Z,17.70
2023-01-22T22:43:34.877Z,17.30
2023-01-22T22:46:03.423Z,16.35
2023-01-22T22:48:30.411Z,21.70
2023-01-22T22:50:57.490Z,18.75
2023-01-22T22:53:24.365Z,18.90
2023-01-22T22:55:51.292Z,17.33
2023-01-22T22:58:18.792Z,17.20
2023-01-22T23:00:45.696Z,16.83
2023-01-22T23:03:12.503Z,18.55
2023-01-22T23:05:39.928Z,19.80
2023-01-22T23:08:06.633Z,20.60
2023-01-22T23:10:33.358Z,21.13
2023-01-22T23:13:02.248Z,18.15
2023-01-22T23:15:30.343Z,18.42
2023-01-22T23:17:58.396Z,17.77
2023-01-22T23:20:26.296Z,18.77
2023-01-22T23:22:59.419Z,22.20
2023-01-22T23:25:26.245Z,18.63
2023-01-22T23:27:53.012Z,14.05
2023-01-22T23:30:20.005Z,17.23
2023-01-22T23:32:46.887Z,15.60
2023-01-22T23:35:13.691Z,15.68
2023-01-22T23:37:40.408Z,19.17
2023-01-22T23:40:07.845Z,17.67
2023-01-22T23:42:34.607Z,20.80
2023-01-22T23:45:01.342Z,16.35
2023-01-22T23:47:28.118Z,15.73
2023-01-22T23:49:54.882Z,18.92
2023-01-22T23:52:21.680Z,18.50
2023-01-22T23:54:48.546Z,17.27
2023-01-22T23:57:15.333Z,17.25
2023-01-22T23:59:42.067Z,13.02
